Bei Facebook empfehlenBei Twitter postenGoogle plusPinterest

Das Wetter im Erzgebirge am 04.04.2015

Wetter und Klima am 04.04.2015 Holzhau im Erzgebirge (630m ü.NN)
Letzte gemessene Temperatur und Uhrzeit der Messung23:45:00 Uhr-3.50 °C
Temperatur (Maximum / Höchstwert) und Uhrzeit der Messung15:00:00 Uhr9.80 °C
Temperatur (Minimum / Tiefstwert) und Uhrzeit der Messung06:30:00-6.40 °C
Errechneter Absolutwert der Temperaturschwankungen zwischen Tmin und Tmax des Tages16.20 K
Errechnete Tagesmitteltemperatur0.52708 °C
Gesamt - Niederschlag des Tages (in flüssiger Form)4.66 Liter / m²
Luftdruck (Maximum / Höchstwert) und Zeitpunkt der Messung23:45:00 Uhr1014.10 hPa
Luftdruck (Minimum / Tiefstwert) und Zeitpunkt der Messung15:30:00 Uhr1011.00 hPa
Errechneter Absolutwert der Luftdruckschwankungen des Tages3.10 hPa
Höchste gemessene Windgeschwindigkeit und Uhrzeit der Messung17:15:00 Uhr12.24 km/h
Errechnete Windhäufigkeit in Relation zu den Messwerten des Tages1.04167 %
Niedrigste Windkühle (Windchill) und Zeitpunkt der Messung06:30:00 Uhr-6.40 °C
Taupunkt (Maximum / Höchstwert) und Uhrzeit der Messung09:45:00 Uhr0.80 °C
Taupunkt (Minimum / Tiefstwert) und Uhrzeit der Messung06:30:00-7.90 °C
Anzahl der automatisch eingelesenen Messwerte 96

Detaillierte Wetter- und Klima- Messwerte für den 04.04.2015 in Holzhau im Erzgebirge (630m ü.NN)
ZeitTemperaturLuftdruckRel. LuftfeuchteWindWindrichtungWindchillTaupunktNiederschlag l/m²
23:45:00-3.50 °C1014.10 hPa87.00 %-5.60 °C4.66
23:30:00-3.30 °C1014.10 hPa86.00 %-5.50 °C4.66
23:15:00-2.90 °C1014.00 hPa86.00 %-5.10 °C4.66
23:00:00-2.20 °C1013.80 hPa86.00 %-4.50 °C4.66
22:45:00-1.90 °C1013.60 hPa86.00 %-4.20 °C4.66
22:30:00-1.50 °C1013.40 hPa85.00 %-3.90 °C4.66
22:15:00-0.90 °C1013.40 hPa86.00 %-3.20 °C4.66
22:00:00-0.60 °C1013.30 hPa86.00 %-2.90 °C4.66
21:45:00-0.60 °C1013.00 hPa86.00 %-2.90 °C4.66
21:30:00-0.70 °C1013.40 hPa86.00 %-3.00 °C4.66
21:15:00-1.10 °C1013.10 hPa85.00 %-3.60 °C4.66
21:00:00-1.40 °C1013.00 hPa83.00 %-4.20 °C4.66
20:45:00-1.00 °C1012.70 hPa83.00 %-3.80 °C4.66
20:30:00-0.40 °C1012.50 hPa82.00 %-3.40 °C4.66
20:15:00-0.20 °C1012.30 hPa82.00 %-3.20 °C4.66
20:00:00-0.30 °C1012.20 hPa80.00 %-3.70 °C4.66
19:45:000.10 °C1012.20 hPa76.00 %-3.60 °C4.66
19:30:001.10 °C1011.70 hPa75.00 %-2.80 °C4.66
19:15:001.90 °C1011.70 hPa74.00 %-2.20 °C4.66
19:00:002.20 °C1011.70 hPa74.00 %-1.90 °C4.66
18:45:002.10 °C1011.60 hPa73.00 %-2.20 °C4.66
18:30:002.30 °C1011.80 hPa72.00 %-2.20 °C4.66
18:15:002.60 °C1011.50 hPa71.00 %-2.10 °C4.66
18:00:002.90 °C1011.50 hPa71.00 %-1.80 °C4.66
17:45:003.60 °C1012.00 hPa67.00 %-1.90 °C4.66
17:30:004.80 °C1011.90 hPa63.00 %-1.60 °C4.66
17:15:006.80 °C1011.60 hPa56.00 %12.24 km/hNNO4.40 °C-1.30 °C4.66
17:00:006.60 °C1011.40 hPa55.00 %-1.80 °C4.66
16:45:006.60 °C1011.40 hPa55.00 %-1.80 °C4.66
16:30:007.10 °C1011.40 hPa53.00 %-1.80 °C4.66
16:15:007.50 °C1011.40 hPa50.00 %-2.20 °C4.66
16:00:007.90 °C1011.10 hPa50.00 %-1.90 °C4.66
15:45:008.40 °C1011.10 hPa48.00 %-2.00 °C4.66
15:30:009.50 °C1011.00 hPa48.00 %-0.90 °C4.14
15:15:009.40 °C1011.30 hPa50.00 %-0.50 °C4.14
15:00:009.80 °C1011.30 hPa50.00 %-0.10 °C4.14
14:45:008.60 °C1011.30 hPa52.00 %-0.70 °C3.62
14:30:009.20 °C1011.30 hPa52.00 %-0.10 °C3.62
14:15:007.90 °C1011.50 hPa54.00 %-0.80 °C3.62
14:00:007.50 °C1011.50 hPa57.00 %-0.50 °C3.10
13:45:007.60 °C1011.50 hPa55.00 %-0.80 °C3.10
13:30:008.60 °C1011.50 hPa57.00 %0.60 °C2.59
13:15:007.10 °C1011.60 hPa59.00 %-0.40 °C2.59
13:00:007.90 °C1011.50 hPa59.00 %0.40 °C2.59
12:45:007.30 °C1011.60 hPa60.00 %0.10 °C2.07
12:30:006.60 °C1011.60 hPa62.00 %-0.10 °C2.07
12:15:006.70 °C1011.40 hPa64.00 %0.40 °C2.07
12:00:006.10 °C1011.40 hPa66.00 %0.20 °C1.55
11:45:005.30 °C1011.30 hPa72.00 %0.70 °C1.55
11:30:004.30 °C1011.40 hPa74.00 %0.10 °C1.03
11:15:004.10 °C1011.30 hPa78.00 %0.60 °C1.03
11:00:002.90 °C1011.30 hPa83.00 %0.30 °C1.03
10:45:001.60 °C1011.30 hPa87.00 %-0.30 °C1.03
10:30:001.40 °C1011.30 hPa87.00 %-0.50 °C0.51
10:15:001.40 °C1011.40 hPa89.00 %-0.20 °C0.51
10:00:001.80 °C1011.40 hPa90.00 %0.30 °C0.51
09:45:002.10 °C1011.40 hPa91.00 %0.80 °C0.51
09:30:001.90 °C1011.10 hPa92.00 %0.70 °C0.51
09:15:001.30 °C1011.30 hPa92.00 %0.10 °C 
09:00:000.60 °C1011.20 hPa93.00 %-0.40 °C 
08:45:00-0.10 °C1011.30 hPa92.00 %-1.40 °C 
08:30:00-1.00 °C1011.30 hPa92.00 %-2.30 °C 
08:15:00-1.90 °C1011.30 hPa92.00 %-3.20 °C 
08:00:00-2.90 °C1011.10 hPa92.00 %-4.10 °C 
07:45:00-4.10 °C1011.30 hPa92.00 %-5.30 °C 
07:30:00-4.90 °C1011.20 hPa91.00 %-6.30 °C 
07:15:00-5.40 °C1011.20 hPa91.00 %-6.80 °C 
07:00:00-5.80 °C1011.40 hPa91.00 %-7.20 °C 
06:45:00-6.10 °C1011.30 hPa91.00 %-7.50 °C 
06:30:00-6.40 °C1011.40 hPa90.00 %-7.90 °C 
06:15:00-6.20 °C1011.30 hPa90.00 %-7.70 °C 
06:00:00-6.10 °C1011.20 hPa90.00 %-7.60 °C 
05:45:00-6.10 °C1011.20 hPa91.00 %-7.50 °C 
05:30:00-6.10 °C1011.30 hPa90.00 %-7.60 °C 
05:15:00-5.90 °C1011.50 hPa90.00 %-7.40 °C 
05:00:00-5.80 °C1011.50 hPa90.00 %-7.30 °C 
04:45:00-5.40 °C1011.50 hPa90.00 %-6.90 °C 
04:30:00-5.20 °C1011.50 hPa90.00 %-6.70 °C 
04:15:00-4.90 °C1011.60 hPa90.00 %-6.50 °C 
04:00:00-4.40 °C1012.00 hPa91.00 %-5.80 °C 
03:45:00-3.90 °C1012.00 hPa91.00 %-5.30 °C 
03:30:00-3.30 °C1012.00 hPa91.00 %-4.70 °C 
03:15:00-2.90 °C1012.10 hPa91.00 %-4.30 °C 
03:00:00-2.80 °C1012.20 hPa91.00 %-4.20 °C 
02:45:00-2.90 °C1012.30 hPa91.00 %-4.30 °C 
02:30:00-3.10 °C1012.30 hPa91.00 %-4.50 °C 
02:15:00-3.10 °C1012.40 hPa91.00 %-4.50 °C 
02:00:00-3.20 °C1012.50 hPa91.00 %-4.60 °C 
01:45:00-3.00 °C1012.70 hPa91.00 %-4.40 °C 
01:30:00-3.10 °C1012.80 hPa91.00 %-4.50 °C 
01:15:00-3.40 °C1012.70 hPa91.00 %-4.80 °C 
01:00:00-3.50 °C1012.90 hPa91.00 %-4.90 °C 
00:45:00-3.80 °C1012.80 hPa91.00 %-5.20 °C 
00:30:00-4.10 °C1012.90 hPa90.00 %-5.70 °C 
00:15:00-4.40 °C1013.00 hPa90.00 %-6.00 °C 
00:00:00-4.70 °C1013.10 hPa90.00 %-6.30 °C 

Permanenter Link zu dieser Seite: Wetter im Erzgebirge am 04.04.2015
Performance-Info: Die Erstellung der Seite / Statistik(en) / Tabelle(n) erforderte 5 Datenbankserver-Abfrage(n) und dauerte 98 Millisekunden. (Dieser Messwert ist von der Gesamt-Auslastung des Servers abhängig.)
Erzgebirge - Wetter | Erzgebirge - Wetter (Mobilgeräte) | Komplette Klimadatenbank